sensor_id;sensor_type;location;lat;lon;timestamp;P1;durP1;ratioP1;P2;durP2;ratioP2
35981;SDS011;22058;0.000;0.000;2023-05-10T00:02:13;4.72;;;3.78;;
35981;SDS011;22058;0.000;0.000;2023-05-10T00:04:39;9.32;;;3.85;;
35981;SDS011;22058;0.000;0.000;2023-05-10T00:07:06;7.45;;;4.80;;
35981;SDS011;22058;0.000;0.000;2023-05-10T00:09:32;8.20;;;4.78;;
35981;SDS011;22058;0.000;0.000;2023-05-10T00:11:58;9.05;;;3.65;;
35981;SDS011;22058;0.000;0.000;2023-05-10T00:14:24;9.60;;;3.42;;
35981;SDS011;22058;0.000;0.000;2023-05-10T00:16:50;8.30;;;3.28;;
35981;SDS011;22058;0.000;0.000;2023-05-10T00:19:16;6.68;;;4.30;;
35981;SDS011;22058;0.000;0.000;2023-05-10T00:21:42;8.73;;;4.22;;
35981;SDS011;22058;0.000;0.000;2023-05-10T00:24:09;7.32;;;4.22;;
35981;SDS011;22058;0.000;0.000;2023-05-10T00:26:35;10.35;;;4.10;;
35981;SDS011;22058;0.000;0.000;2023-05-10T00:29:01;15.20;;;4.32;;
35981;SDS011;22058;0.000;0.000;2023-05-10T00:31:27;5.95;;;3.90;;
35981;SDS011;22058;0.000;0.000;2023-05-10T00:33:53;5.80;;;4.00;;
35981;SDS011;22058;0.000;0.000;2023-05-10T00:36:19;5.40;;;4.07;;
35981;SDS011;22058;0.000;0.000;2023-05-10T00:38:46;7.40;;;3.72;;
35981;SDS011;22058;0.000;0.000;2023-05-10T00:41:12;9.15;;;4.57;;
35981;SDS011;22058;0.000;0.000;2023-05-10T00:43:38;5.78;;;4.00;;
35981;SDS011;22058;0.000;0.000;2023-05-10T00:46:04;8.18;;;3.67;;
35981;SDS011;22058;0.000;0.000;2023-05-10T00:48:30;4.43;;;3.60;;
35981;SDS011;22058;0.000;0.000;2023-05-10T00:50:57;6.88;;;4.30;;
35981;SDS011;22058;0.000;0.000;2023-05-10T00:53:23;5.50;;;3.60;;
35981;SDS011;22058;0.000;0.000;2023-05-10T00:55:50;5.38;;;4.68;;
35981;SDS011;22058;0.000;0.000;2023-05-10T00:58:16;6.43;;;4.63;;
35981;SDS011;22058;0.000;0.000;2023-05-10T01:00:43;7.13;;;3.40;;
35981;SDS011;22058;0.000;0.000;2023-05-10T01:03:10;5.53;;;3.72;;
35981;SDS011;22058;0.000;0.000;2023-05-10T01:05:39;15.93;;;4.20;;
35981;SDS011;22058;0.000;0.000;2023-05-10T01:08:05;7.60;;;3.80;;
35981;SDS011;22058;0.000;0.000;2023-05-10T01:10:31;8.50;;;4.55;;
35981;SDS011;22058;0.000;0.000;2023-05-10T01:12:57;9.80;;;4.13;;
35981;SDS011;22058;0.000;0.000;2023-05-10T01:15:25;8.75;;;4.20;;
35981;SDS011;22058;0.000;0.000;2023-05-10T01:17:51;4.25;;;3.85;;
35981;SDS011;22058;0.000;0.000;2023-05-10T01:20:18;8.80;;;3.55;;
35981;SDS011;22058;0.000;0.000;2023-05-10T01:25:19;8.05;;;3.80;;
35981;SDS011;22058;0.000;0.000;2023-05-10T01:28:23;4.65;;;4.22;;
35981;SDS011;22058;0.000;0.000;2023-05-10T01:33:32;5.38;;;3.20;;
35981;SDS011;22058;0.000;0.000;2023-05-10T01:36:03;7.22;;;3.88;;
35981;SDS011;22058;0.000;0.000;2023-05-10T01:46:20;6.47;;;3.33;;
35981;SDS011;22058;0.000;0.000;2023-05-10T01:48:51;6.28;;;4.30;;
35981;SDS011;22058;0.000;0.000;2023-05-10T01:51:19;5.95;;;3.75;;
35981;SDS011;22058;0.000;0.000;2023-05-10T01:53:47;7.05;;;3.78;;
35981;SDS011;22058;0.000;0.000;2023-05-10T01:56:13;4.18;;;3.80;;
35981;SDS011;22058;0.000;0.000;2023-05-10T01:58:40;4.57;;;3.30;;
35981;SDS011;22058;0.000;0.000;2023-05-10T02:01:10;6.63;;;3.40;;
35981;SDS011;22058;0.000;0.000;2023-05-10T02:03:36;5.97;;;3.90;;
35981;SDS011;22058;0.000;0.000;2023-05-10T02:06:04;5.30;;;3.42;;
35981;SDS011;22058;0.000;0.000;2023-05-10T02:08:31;8.48;;;3.72;;
35981;SDS011;22058;0.000;0.000;2023-05-10T02:10:58;5.13;;;3.50;;
35981;SDS011;22058;0.000;0.000;2023-05-10T02:13:25;5.68;;;3.65;;
35981;SDS011;22058;0.000;0.000;2023-05-10T02:15:53;7.93;;;4.35;;
35981;SDS011;22058;0.000;0.000;2023-05-10T02:18:20;6.55;;;4.85;;
35981;SDS011;22058;0.000;0.000;2023-05-10T02:20:47;5.18;;;3.72;;
35981;SDS011;22058;0.000;0.000;2023-05-10T02:23:14;5.03;;;3.33;;
35981;SDS011;22058;0.000;0.000;2023-05-10T02:25:42;5.05;;;3.60;;
35981;SDS011;22058;0.000;0.000;2023-05-10T02:28:09;4.57;;;4.18;;
35981;SDS011;22058;0.000;0.000;2023-05-10T02:30:36;6.50;;;3.78;;
35981;SDS011;22058;0.000;0.000;2023-05-10T02:33:03;6.20;;;3.58;;
35981;SDS011;22058;0.000;0.000;2023-05-10T02:35:31;5.75;;;3.75;;
35981;SDS011;22058;0.000;0.000;2023-05-10T02:37:58;5.97;;;3.67;;
35981;SDS011;22058;0.000;0.000;2023-05-10T02:40:25;3.83;;;3.50;;
35981;SDS011;22058;0.000;0.000;2023-05-10T02:42:52;7.47;;;3.97;;
35981;SDS011;22058;0.000;0.000;2023-05-10T02:45:20;4.95;;;3.65;;
35981;SDS011;22058;0.000;0.000;2023-05-10T02:47:47;4.97;;;4.03;;
35981;SDS011;22058;0.000;0.000;2023-05-10T02:50:14;4.85;;;3.65;;
35981;SDS011;22058;0.000;0.000;2023-05-10T02:52:42;4.10;;;3.58;;
35981;SDS011;22058;0.000;0.000;2023-05-10T02:55:09;4.65;;;3.75;;
35981;SDS011;22058;0.000;0.000;2023-05-10T02:57:35;4.30;;;3.42;;
35981;SDS011;22058;0.000;0.000;2023-05-10T03:00:05;6.40;;;4.00;;
35981;SDS011;22058;0.000;0.000;2023-05-10T03:02:32;4.03;;;3.53;;
35981;SDS011;22058;0.000;0.000;2023-05-10T03:04:58;6.45;;;4.40;;
35981;SDS011;22058;0.000;0.000;2023-05-10T03:07:24;4.18;;;3.53;;
35981;SDS011;22058;0.000;0.000;2023-05-10T03:09:50;4.65;;;3.20;;
35981;SDS011;22058;0.000;0.000;2023-05-10T03:12:23;4.22;;;3.55;;
35981;SDS011;22058;0.000;0.000;2023-05-10T03:14:53;3.45;;;3.13;;
35981;SDS011;22058;0.000;0.000;2023-05-10T03:17:27;3.42;;;3.13;;
35981;SDS011;22058;0.000;0.000;2023-05-10T03:19:55;5.60;;;3.53;;
35981;SDS011;22058;0.000;0.000;2023-05-10T03:22:26;4.90;;;3.30;;
35981;SDS011;22058;0.000;0.000;2023-05-10T03:24:55;5.22;;;3.63;;
35981;SDS011;22058;0.000;0.000;2023-05-10T03:27:23;5.57;;;3.70;;
35981;SDS011;22058;0.000;0.000;2023-05-10T03:29:50;6.65;;;3.47;;
35981;SDS011;22058;0.000;0.000;2023-05-10T03:32:17;4.65;;;3.85;;
35981;SDS011;22058;0.000;0.000;2023-05-10T03:34:43;3.97;;;3.22;;
35981;SDS011;22058;0.000;0.000;2023-05-10T03:37:09;4.90;;;3.38;;
35981;SDS011;22058;0.000;0.000;2023-05-10T03:39:35;4.13;;;3.58;;
35981;SDS011;22058;0.000;0.000;2023-05-10T03:42:01;3.75;;;3.45;;
35981;SDS011;22058;0.000;0.000;2023-05-10T03:44:28;4.55;;;3.83;;
35981;SDS011;22058;0.000;0.000;2023-05-10T03:46:54;5.43;;;3.45;;
35981;SDS011;22058;0.000;0.000;2023-05-10T03:49:22;5.10;;;4.60;;
35981;SDS011;22058;0.000;0.000;2023-05-10T03:51:48;7.25;;;3.58;;
35981;SDS011;22058;0.000;0.000;2023-05-10T03:54:14;6.57;;;4.70;;
35981;SDS011;22058;0.000;0.000;2023-05-10T03:56:40;4.32;;;3.70;;
35981;SDS011;22058;0.000;0.000;2023-05-10T03:59:06;4.65;;;3.88;;
35981;SDS011;22058;0.000;0.000;2023-05-10T04:01:34;4.45;;;3.45;;
35981;SDS011;22058;0.000;0.000;2023-05-10T04:04:00;6.20;;;4.30;;
35981;SDS011;22058;0.000;0.000;2023-05-10T04:06:26;4.68;;;3.25;;
35981;SDS011;22058;0.000;0.000;2023-05-10T04:08:52;4.40;;;4.00;;
35981;SDS011;22058;0.000;0.000;2023-05-10T04:11:30;5.35;;;3.60;;
35981;SDS011;22058;0.000;0.000;2023-05-10T04:13:57;4.78;;;3.70;;
35981;SDS011;22058;0.000;0.000;2023-05-10T04:16:23;4.55;;;4.13;;
35981;SDS011;22058;0.000;0.000;2023-05-10T04:18:49;5.70;;;3.55;;
35981;SDS011;22058;0.000;0.000;2023-05-10T04:21:15;4.05;;;3.75;;
35981;SDS011;22058;0.000;0.000;2023-05-10T04:23:42;5.53;;;3.80;;
35981;SDS011;22058;0.000;0.000;2023-05-10T04:26:08;3.70;;;3.35;;
35981;SDS011;22058;0.000;0.000;2023-05-10T04:28:34;5.68;;;4.03;;
35981;SDS011;22058;0.000;0.000;2023-05-10T04:31:01;5.20;;;3.72;;
35981;SDS011;22058;0.000;0.000;2023-05-10T04:33:27;6.28;;;4.07;;
35981;SDS011;22058;0.000;0.000;2023-05-10T04:35:53;5.68;;;4.15;;
35981;SDS011;22058;0.000;0.000;2023-05-10T04:38:19;4.03;;;3.72;;
35981;SDS011;22058;0.000;0.000;2023-05-10T04:40:46;6.25;;;4.03;;
35981;SDS011;22058;0.000;0.000;2023-05-10T04:43:12;4.65;;;3.28;;
35981;SDS011;22058;0.000;0.000;2023-05-10T04:45:38;4.90;;;3.60;;
35981;SDS011;22058;0.000;0.000;2023-05-10T04:48:04;4.38;;;3.80;;
35981;SDS011;22058;0.000;0.000;2023-05-10T04:50:30;7.95;;;4.82;;
35981;SDS011;22058;0.000;0.000;2023-05-10T04:52:57;6.03;;;4.13;;
35981;SDS011;22058;0.000;0.000;2023-05-10T04:55:23;6.28;;;5.68;;
35981;SDS011;22058;0.000;0.000;2023-05-10T04:57:49;4.90;;;4.45;;
35981;SDS011;22058;0.000;0.000;2023-05-10T05:00:15;4.50;;;4.10;;
35981;SDS011;22058;0.000;0.000;2023-05-10T05:02:42;4.68;;;4.28;;
35981;SDS011;22058;0.000;0.000;2023-05-10T05:05:12;8.13;;;5.15;;
35981;SDS011;22058;0.000;0.000;2023-05-10T05:07:38;4.75;;;4.38;;
35981;SDS011;22058;0.000;0.000;2023-05-10T05:10:05;5.00;;;4.38;;
35981;SDS011;22058;0.000;0.000;2023-05-10T05:12:32;6.80;;;4.75;;
35981;SDS011;22058;0.000;0.000;2023-05-10T05:14:58;5.70;;;4.50;;
35981;SDS011;22058;0.000;0.000;2023-05-10T05:17:27;11.10;;;4.30;;
35981;SDS011;22058;0.000;0.000;2023-05-10T05:19:53;9.07;;;3.63;;
35981;SDS011;22058;0.000;0.000;2023-05-10T05:22:20;4.15;;;3.30;;
35981;SDS011;22058;0.000;0.000;2023-05-10T05:24:52;5.20;;;4.68;;
35981;SDS011;22058;0.000;0.000;2023-05-10T05:27:18;4.05;;;3.75;;
35981;SDS011;22058;0.000;0.000;2023-05-10T05:29:46;8.02;;;4.75;;
35981;SDS011;22058;0.000;0.000;2023-05-10T05:32:12;5.05;;;4.00;;
35981;SDS011;22058;0.000;0.000;2023-05-10T05:34:38;6.88;;;4.65;;
35981;SDS011;22058;0.000;0.000;2023-05-10T05:37:04;5.30;;;4.78;;
35981;SDS011;22058;0.000;0.000;2023-05-10T05:39:30;8.15;;;5.28;;
35981;SDS011;22058;0.000;0.000;2023-05-10T05:41:57;7.15;;;4.18;;
35981;SDS011;22058;0.000;0.000;2023-05-10T05:44:23;6.63;;;4.53;;
35981;SDS011;22058;0.000;0.000;2023-05-10T05:46:49;4.93;;;4.55;;
35981;SDS011;22058;0.000;0.000;2023-05-10T05:49:15;4.95;;;4.25;;
35981;SDS011;22058;0.000;0.000;2023-05-10T05:51:41;7.50;;;4.50;;
35981;SDS011;22058;0.000;0.000;2023-05-10T05:54:08;5.50;;;4.90;;
35981;SDS011;22058;0.000;0.000;2023-05-10T05:56:34;4.82;;;3.70;;
35981;SDS011;22058;0.000;0.000;2023-05-10T05:59:00;7.63;;;4.65;;
35981;SDS011;22058;0.000;0.000;2023-05-10T06:01:26;5.03;;;4.53;;
35981;SDS011;22058;0.000;0.000;2023-05-10T06:03:52;5.53;;;4.78;;
35981;SDS011;22058;0.000;0.000;2023-05-10T06:06:18;8.70;;;5.20;;
35981;SDS011;22058;0.000;0.000;2023-05-10T06:08:44;8.65;;;4.32;;
35981;SDS011;22058;0.000;0.000;2023-05-10T06:11:10;5.60;;;4.18;;
35981;SDS011;22058;0.000;0.000;2023-05-10T06:13:37;6.60;;;4.95;;
35981;SDS011;22058;0.000;0.000;2023-05-10T06:16:03;4.78;;;4.35;;
35981;SDS011;22058;0.000;0.000;2023-05-10T06:18:29;6.63;;;4.60;;
35981;SDS011;22058;0.000;0.000;2023-05-10T06:20:55;9.82;;;4.85;;
35981;SDS011;22058;0.000;0.000;2023-05-10T06:23:22;9.05;;;5.30;;
35981;SDS011;22058;0.000;0.000;2023-05-10T06:25:50;5.80;;;4.47;;
35981;SDS011;22058;0.000;0.000;2023-05-10T06:28:16;6.93;;;4.85;;
35981;SDS011;22058;0.000;0.000;2023-05-10T06:30:42;4.90;;;4.45;;
35981;SDS011;22058;0.000;0.000;2023-05-10T06:33:09;4.72;;;4.35;;
35981;SDS011;22058;0.000;0.000;2023-05-10T06:35:35;9.00;;;4.70;;
35981;SDS011;22058;0.000;0.000;2023-05-10T06:38:01;5.47;;;4.60;;
35981;SDS011;22058;0.000;0.000;2023-05-10T06:40:28;5.82;;;5.32;;
35981;SDS011;22058;0.000;0.000;2023-05-10T06:42:54;8.70;;;4.90;;
35981;SDS011;22058;0.000;0.000;2023-05-10T06:45:20;6.38;;;4.60;;
35981;SDS011;22058;0.000;0.000;2023-05-10T06:47:46;8.60;;;5.20;;
35981;SDS011;22058;0.000;0.000;2023-05-10T06:50:12;9.27;;;5.13;;
35981;SDS011;22058;0.000;0.000;2023-05-10T06:52:38;6.60;;;4.80;;
35981;SDS011;22058;0.000;0.000;2023-05-10T06:55:05;7.28;;;5.43;;
35981;SDS011;22058;0.000;0.000;2023-05-10T06:57:31;8.27;;;4.85;;
35981;SDS011;22058;0.000;0.000;2023-05-10T06:59:58;6.95;;;4.93;;
35981;SDS011;22058;0.000;0.000;2023-05-10T07:02:24;5.32;;;4.90;;
35981;SDS011;22058;0.000;0.000;2023-05-10T07:04:50;6.60;;;4.75;;
35981;SDS011;22058;0.000;0.000;2023-05-10T07:07:17;9.15;;;5.20;;
35981;SDS011;22058;0.000;0.000;2023-05-10T07:09:43;5.80;;;5.30;;
35981;SDS011;22058;0.000;0.000;2023-05-10T07:12:10;4.95;;;4.55;;
35981;SDS011;22058;0.000;0.000;2023-05-10T07:14:36;11.98;;;6.15;;
35981;SDS011;22058;0.000;0.000;2023-05-10T07:17:02;8.38;;;6.30;;
35981;SDS011;22058;0.000;0.000;2023-05-10T07:19:28;5.82;;;5.10;;
35981;SDS011;22058;0.000;0.000;2023-05-10T07:21:54;5.47;;;4.65;;
35981;SDS011;22058;0.000;0.000;2023-05-10T07:24:21;10.85;;;4.70;;
35981;SDS011;22058;0.000;0.000;2023-05-10T07:26:48;6.47;;;4.68;;
35981;SDS011;22058;0.000;0.000;2023-05-10T07:29:14;5.43;;;4.28;;
35981;SDS011;22058;0.000;0.000;2023-05-10T07:31:40;8.15;;;6.43;;
35981;SDS011;22058;0.000;0.000;2023-05-10T07:34:09;7.72;;;4.20;;
35981;SDS011;22058;0.000;0.000;2023-05-10T07:36:35;6.32;;;4.53;;
35981;SDS011;22058;0.000;0.000;2023-05-10T07:39:01;6.97;;;4.55;;
35981;SDS011;22058;0.000;0.000;2023-05-10T07:41:28;6.15;;;4.35;;
35981;SDS011;22058;0.000;0.000;2023-05-10T07:43:54;12.40;;;5.68;;
35981;SDS011;22058;0.000;0.000;2023-05-10T07:46:20;4.43;;;3.97;;
35981;SDS011;22058;0.000;0.000;2023-05-10T07:48:46;7.25;;;4.63;;
35981;SDS011;22058;0.000;0.000;2023-05-10T07:51:12;6.93;;;4.25;;
35981;SDS011;22058;0.000;0.000;2023-05-10T07:53:38;5.57;;;4.85;;
35981;SDS011;22058;0.000;0.000;2023-05-10T07:56:26;7.20;;;4.63;;
35981;SDS011;22058;0.000;0.000;2023-05-10T07:58:54;5.25;;;4.72;;
35981;SDS011;22058;0.000;0.000;2023-05-10T08:01:21;9.85;;;4.55;;
35981;SDS011;22058;0.000;0.000;2023-05-10T08:03:47;7.60;;;4.70;;
35981;SDS011;22058;0.000;0.000;2023-05-10T08:06:14;5.32;;;4.75;;
35981;SDS011;22058;0.000;0.000;2023-05-10T08:08:40;6.20;;;4.97;;
35981;SDS011;22058;0.000;0.000;2023-05-10T08:11:07;7.32;;;4.32;;
35981;SDS011;22058;0.000;0.000;2023-05-10T08:13:33;5.15;;;4.32;;
35981;SDS011;22058;0.000;0.000;2023-05-10T08:15:59;6.63;;;4.97;;
35981;SDS011;22058;0.000;0.000;2023-05-10T08:18:25;8.48;;;4.82;;
35981;SDS011;22058;0.000;0.000;2023-05-10T08:20:51;11.45;;;4.45;;
35981;SDS011;22058;0.000;0.000;2023-05-10T08:23:18;10.13;;;5.68;;
35981;SDS011;22058;0.000;0.000;2023-05-10T08:25:44;10.55;;;5.93;;
35981;SDS011;22058;0.000;0.000;2023-05-10T08:28:10;7.13;;;5.03;;
35981;SDS011;22058;0.000;0.000;2023-05-10T08:30:36;5.15;;;4.47;;
35981;SDS011;22058;0.000;0.000;2023-05-10T08:33:02;6.40;;;5.25;;
35981;SDS011;22058;0.000;0.000;2023-05-10T08:35:28;7.82;;;4.80;;
35981;SDS011;22058;0.000;0.000;2023-05-10T08:37:54;7.55;;;5.25;;
35981;SDS011;22058;0.000;0.000;2023-05-10T08:40:20;12.05;;;5.43;;
35981;SDS011;22058;0.000;0.000;2023-05-10T08:42:51;8.02;;;4.97;;
35981;SDS011;22058;0.000;0.000;2023-05-10T08:45:19;10.38;;;5.43;;
35981;SDS011;22058;0.000;0.000;2023-05-10T08:47:45;6.28;;;5.32;;
35981;SDS011;22058;0.000;0.000;2023-05-10T08:50:12;7.32;;;5.55;;
35981;SDS011;22058;0.000;0.000;2023-05-10T08:52:39;9.95;;;4.78;;
35981;SDS011;22058;0.000;0.000;2023-05-10T08:55:06;8.23;;;4.80;;
35981;SDS011;22058;0.000;0.000;2023-05-10T08:57:32;10.55;;;4.60;;
35981;SDS011;22058;0.000;0.000;2023-05-10T08:59:59;5.50;;;5.00;;
35981;SDS011;22058;0.000;0.000;2023-05-10T09:02:26;11.80;;;6.03;;
35981;SDS011;22058;0.000;0.000;2023-05-10T09:04:52;5.55;;;4.85;;
35981;SDS011;22058;0.000;0.000;2023-05-10T09:07:18;8.70;;;4.47;;
35981;SDS011;22058;0.000;0.000;2023-05-10T09:09:45;4.95;;;4.50;;
35981;SDS011;22058;0.000;0.000;2023-05-10T09:12:12;4.88;;;4.18;;
35981;SDS011;22058;0.000;0.000;2023-05-10T09:14:40;5.93;;;4.28;;
35981;SDS011;22058;0.000;0.000;2023-05-10T09:17:07;7.63;;;4.97;;
35981;SDS011;22058;0.000;0.000;2023-05-10T09:19:33;5.40;;;4.22;;
35981;SDS011;22058;0.000;0.000;2023-05-10T09:21:59;6.47;;;5.00;;
35981;SDS011;22058;0.000;0.000;2023-05-10T09:24:28;6.45;;;4.43;;
35981;SDS011;22058;0.000;0.000;2023-05-10T09:26:56;6.07;;;4.63;;
35981;SDS011;22058;0.000;0.000;2023-05-10T09:29:23;5.38;;;4.78;;
35981;SDS011;22058;0.000;0.000;2023-05-10T09:31:50;5.70;;;4.07;;
35981;SDS011;22058;0.000;0.000;2023-05-10T09:34:18;11.23;;;5.03;;
35981;SDS011;22058;0.000;0.000;2023-05-10T09:36:50;8.27;;;5.07;;
35981;SDS011;22058;0.000;0.000;2023-05-10T09:39:17;6.00;;;4.65;;
35981;SDS011;22058;0.000;0.000;2023-05-10T09:41:43;5.68;;;4.53;;
35981;SDS011;22058;0.000;0.000;2023-05-10T09:44:09;9.05;;;5.57;;
35981;SDS011;22058;0.000;0.000;2023-05-10T09:46:35;5.38;;;4.72;;
35981;SDS011;22058;0.000;0.000;2023-05-10T09:49:02;7.78;;;4.93;;
35981;SDS011;22058;0.000;0.000;2023-05-10T09:51:28;6.68;;;4.32;;
35981;SDS011;22058;0.000;0.000;2023-05-10T09:54:13;7.18;;;5.10;;
35981;SDS011;22058;0.000;0.000;2023-05-10T09:56:40;6.38;;;5.05;;
35981;SDS011;22058;0.000;0.000;2023-05-10T09:59:07;5.22;;;4.70;;
35981;SDS011;22058;0.000;0.000;2023-05-10T10:01:33;8.38;;;4.78;;
35981;SDS011;22058;0.000;0.000;2023-05-10T10:04:09;6.72;;;4.90;;
35981;SDS011;22058;0.000;0.000;2023-05-10T10:06:36;8.43;;;4.40;;
35981;SDS011;22058;0.000;0.000;2023-05-10T10:09:02;9.50;;;4.30;;
35981;SDS011;22058;0.000;0.000;2023-05-10T10:11:28;12.52;;;5.38;;
35981;SDS011;22058;0.000;0.000;2023-05-10T10:13:55;9.50;;;4.88;;
35981;SDS011;22058;0.000;0.000;2023-05-10T10:16:21;13.93;;;4.35;;
35981;SDS011;22058;0.000;0.000;2023-05-10T10:18:47;9.20;;;5.30;;
35981;SDS011;22058;0.000;0.000;2023-05-10T10:21:14;6.13;;;4.75;;
35981;SDS011;22058;0.000;0.000;2023-05-10T10:23:41;6.13;;;4.25;;
35981;SDS011;22058;0.000;0.000;2023-05-10T10:26:08;9.23;;;5.78;;
35981;SDS011;22058;0.000;0.000;2023-05-10T10:34:03;10.82;;;4.68;;
35981;SDS011;22058;0.000;0.000;2023-05-10T10:36:32;5.25;;;4.45;;
35981;SDS011;22058;0.000;0.000;2023-05-10T10:39:00;4.43;;;4.03;;
35981;SDS011;22058;0.000;0.000;2023-05-10T10:41:34;9.30;;;4.72;;
35981;SDS011;22058;0.000;0.000;2023-05-10T10:50:03;8.95;;;4.68;;
35981;SDS011;22058;0.000;0.000;2023-05-10T10:52:36;6.68;;;4.22;;
35981;SDS011;22058;0.000;0.000;2023-05-10T10:55:03;10.48;;;4.38;;
35981;SDS011;22058;0.000;0.000;2023-05-10T11:00:19;7.15;;;5.07;;
35981;SDS011;22058;0.000;0.000;2023-05-10T11:02:47;7.53;;;4.88;;
35981;SDS011;22058;0.000;0.000;2023-05-10T11:10:40;5.35;;;4.72;;
35981;SDS011;22058;0.000;0.000;2023-05-10T11:13:07;6.20;;;4.75;;
35981;SDS011;22058;0.000;0.000;2023-05-10T11:15:40;4.95;;;4.25;;
35981;SDS011;22058;0.000;0.000;2023-05-10T11:18:24;7.35;;;4.80;;
35981;SDS011;22058;0.000;0.000;2023-05-10T11:20:51;6.38;;;5.10;;
35981;SDS011;22058;0.000;0.000;2023-05-10T11:23:17;5.10;;;4.60;;
35981;SDS011;22058;0.000;0.000;2023-05-10T11:25:47;9.05;;;4.75;;
35981;SDS011;22058;0.000;0.000;2023-05-10T11:28:14;13.10;;;4.95;;
35981;SDS011;22058;0.000;0.000;2023-05-10T11:30:41;5.28;;;4.72;;
35981;SDS011;22058;0.000;0.000;2023-05-10T11:33:07;13.02;;;5.65;;
35981;SDS011;22058;0.000;0.000;2023-05-10T11:35:37;9.10;;;5.00;;
35981;SDS011;22058;0.000;0.000;2023-05-10T11:38:07;15.07;;;4.95;;
35981;SDS011;22058;0.000;0.000;2023-05-10T11:40:34;10.20;;;4.70;;
35981;SDS011;22058;0.000;0.000;2023-05-10T11:43:00;10.90;;;4.40;;
35981;SDS011;22058;0.000;0.000;2023-05-10T11:45:27;8.10;;;4.45;;
35981;SDS011;22058;0.000;0.000;2023-05-10T11:47:57;5.30;;;4.20;;
35981;SDS011;22058;0.000;0.000;2023-05-10T11:50:23;7.53;;;5.72;;
35981;SDS011;22058;0.000;0.000;2023-05-10T11:52:56;9.38;;;5.05;;
35981;SDS011;22058;0.000;0.000;2023-05-10T11:55:23;7.85;;;4.70;;
35981;SDS011;22058;0.000;0.000;2023-05-10T11:57:53;7.15;;;4.43;;
35981;SDS011;22058;0.000;0.000;2023-05-10T12:00:20;7.72;;;4.97;;
35981;SDS011;22058;0.000;0.000;2023-05-10T12:02:46;5.03;;;4.35;;
35981;SDS011;22058;0.000;0.000;2023-05-10T12:05:13;14.23;;;5.35;;
35981;SDS011;22058;0.000;0.000;2023-05-10T12:07:39;6.70;;;4.70;;
35981;SDS011;22058;0.000;0.000;2023-05-10T12:10:09;13.63;;;5.38;;
35981;SDS011;22058;0.000;0.000;2023-05-10T12:12:42;8.32;;;5.05;;
35981;SDS011;22058;0.000;0.000;2023-05-10T12:15:19;12.15;;;4.97;;
35981;SDS011;22058;0.000;0.000;2023-05-10T12:17:45;5.57;;;4.53;;
35981;SDS011;22058;0.000;0.000;2023-05-10T12:20:18;7.38;;;4.40;;
35981;SDS011;22058;0.000;0.000;2023-05-10T12:22:46;8.65;;;5.85;;
35981;SDS011;22058;0.000;0.000;2023-05-10T12:25:12;11.57;;;6.35;;
35981;SDS011;22058;0.000;0.000;2023-05-10T12:27:38;11.70;;;6.38;;
35981;SDS011;22058;0.000;0.000;2023-05-10T12:30:05;7.72;;;4.40;;
35981;SDS011;22058;0.000;0.000;2023-05-10T12:32:43;8.75;;;4.93;;
35981;SDS011;22058;0.000;0.000;2023-05-10T12:35:09;7.88;;;5.15;;
35981;SDS011;22058;0.000;0.000;2023-05-10T12:37:35;7.35;;;4.50;;
35981;SDS011;22058;0.000;0.000;2023-05-10T12:40:07;5.13;;;4.55;;
35981;SDS011;22058;0.000;0.000;2023-05-10T12:42:34;11.55;;;5.72;;
35981;SDS011;22058;0.000;0.000;2023-05-10T12:45:03;5.55;;;4.60;;
35981;SDS011;22058;0.000;0.000;2023-05-10T12:47:30;11.07;;;5.13;;
35981;SDS011;22058;0.000;0.000;2023-05-10T12:49:56;8.43;;;4.85;;
35981;SDS011;22058;0.000;0.000;2023-05-10T12:52:23;5.32;;;4.80;;
35981;SDS011;22058;0.000;0.000;2023-05-10T12:54:49;9.35;;;4.85;;
35981;SDS011;22058;0.000;0.000;2023-05-10T12:57:15;9.63;;;4.85;;
35981;SDS011;22058;0.000;0.000;2023-05-10T12:59:41;6.13;;;5.00;;
35981;SDS011;22058;0.000;0.000;2023-05-10T13:02:07;5.68;;;4.78;;
35981;SDS011;22058;0.000;0.000;2023-05-10T13:04:34;10.23;;;5.93;;
35981;SDS011;22058;0.000;0.000;2023-05-10T13:07:00;9.40;;;5.40;;
35981;SDS011;22058;0.000;0.000;2023-05-10T13:09:26;13.00;;;5.38;;
35981;SDS011;22058;0.000;0.000;2023-05-10T13:11:54;11.40;;;4.93;;
35981;SDS011;22058;0.000;0.000;2023-05-10T13:14:20;10.88;;;5.15;;
35981;SDS011;22058;0.000;0.000;2023-05-10T13:16:47;7.47;;;5.85;;
35981;SDS011;22058;0.000;0.000;2023-05-10T13:19:13;11.07;;;4.88;;
35981;SDS011;22058;0.000;0.000;2023-05-10T13:21:40;5.03;;;4.55;;
35981;SDS011;22058;0.000;0.000;2023-05-10T13:24:06;6.13;;;5.03;;
35981;SDS011;22058;0.000;0.000;2023-05-10T13:26:32;9.60;;;5.18;;
35981;SDS011;22058;0.000;0.000;2023-05-10T13:28:59;7.78;;;5.10;;
35981;SDS011;22058;0.000;0.000;2023-05-10T13:31:25;15.48;;;5.35;;
35981;SDS011;22058;0.000;0.000;2023-05-10T13:33:51;7.25;;;5.10;;
35981;SDS011;22058;0.000;0.000;2023-05-10T13:36:17;7.93;;;4.55;;
35981;SDS011;22058;0.000;0.000;2023-05-10T13:38:43;12.15;;;5.32;;
35981;SDS011;22058;0.000;0.000;2023-05-10T13:41:10;9.00;;;4.80;;
35981;SDS011;22058;0.000;0.000;2023-05-10T13:43:36;11.60;;;4.85;;
35981;SDS011;22058;0.000;0.000;2023-05-10T13:46:02;7.88;;;5.43;;
35981;SDS011;22058;0.000;0.000;2023-05-10T13:48:28;7.53;;;5.40;;
35981;SDS011;22058;0.000;0.000;2023-05-10T13:50:54;6.78;;;4.75;;
35981;SDS011;22058;0.000;0.000;2023-05-10T13:53:21;8.45;;;4.78;;
35981;SDS011;22058;0.000;0.000;2023-05-10T13:55:48;9.15;;;5.72;;
35981;SDS011;22058;0.000;0.000;2023-05-10T13:58:14;9.10;;;5.10;;
35981;SDS011;22058;0.000;0.000;2023-05-10T14:00:40;6.72;;;4.88;;
35981;SDS011;22058;0.000;0.000;2023-05-10T14:03:06;8.38;;;5.63;;
35981;SDS011;22058;0.000;0.000;2023-05-10T14:05:35;10.75;;;5.63;;
35981;SDS011;22058;0.000;0.000;2023-05-10T14:08:01;10.05;;;5.18;;
35981;SDS011;22058;0.000;0.000;2023-05-10T14:10:28;9.27;;;5.43;;
35981;SDS011;22058;0.000;0.000;2023-05-10T14:12:55;9.40;;;5.70;;
35981;SDS011;22058;0.000;0.000;2023-05-10T14:15:21;10.07;;;5.57;;
35981;SDS011;22058;0.000;0.000;2023-05-10T14:17:48;10.15;;;6.85;;
35981;SDS011;22058;0.000;0.000;2023-05-10T14:20:14;9.30;;;5.07;;
35981;SDS011;22058;0.000;0.000;2023-05-10T14:22:40;6.75;;;4.90;;
35981;SDS011;22058;0.000;0.000;2023-05-10T14:25:06;17.67;;;5.13;;
35981;SDS011;22058;0.000;0.000;2023-05-10T14:27:32;9.38;;;4.85;;
35981;SDS011;22058;0.000;0.000;2023-05-10T14:29:58;11.60;;;5.45;;
35981;SDS011;22058;0.000;0.000;2023-05-10T14:32:25;11.23;;;5.85;;
35981;SDS011;22058;0.000;0.000;2023-05-10T14:34:52;15.23;;;5.78;;
35981;SDS011;22058;0.000;0.000;2023-05-10T14:37:18;10.07;;;5.57;;
35981;SDS011;22058;0.000;0.000;2023-05-10T14:39:44;9.70;;;5.68;;
35981;SDS011;22058;0.000;0.000;2023-05-10T14:42:11;10.30;;;5.35;;
35981;SDS011;22058;0.000;0.000;2023-05-10T14:44:37;8.52;;;5.60;;
35981;SDS011;22058;0.000;0.000;2023-05-10T14:47:03;7.25;;;6.38;;
35981;SDS011;22058;0.000;0.000;2023-05-10T14:49:30;10.27;;;6.10;;
35981;SDS011;22058;0.000;0.000;2023-05-10T14:51:56;9.82;;;5.10;;
35981;SDS011;22058;0.000;0.000;2023-05-10T14:54:22;11.60;;;5.35;;
35981;SDS011;22058;0.000;0.000;2023-05-10T14:56:48;11.02;;;5.25;;
35981;SDS011;22058;0.000;0.000;2023-05-10T14:59:15;15.60;;;7.40;;
35981;SDS011;22058;0.000;0.000;2023-05-10T15:01:41;6.88;;;5.25;;
35981;SDS011;22058;0.000;0.000;2023-05-10T15:04:08;7.47;;;5.50;;
35981;SDS011;22058;0.000;0.000;2023-05-10T15:06:34;9.55;;;4.43;;
35981;SDS011;22058;0.000;0.000;2023-05-10T15:09:01;6.50;;;5.22;;
35981;SDS011;22058;0.000;0.000;2023-05-10T15:11:27;6.53;;;5.00;;
35981;SDS011;22058;0.000;0.000;2023-05-10T15:13:54;12.52;;;5.85;;
35981;SDS011;22058;0.000;0.000;2023-05-10T15:16:20;11.90;;;5.82;;
35981;SDS011;22058;0.000;0.000;2023-05-10T15:18:46;10.63;;;5.35;;
35981;SDS011;22058;0.000;0.000;2023-05-10T15:21:13;6.65;;;5.05;;
35981;SDS011;22058;0.000;0.000;2023-05-10T15:23:39;11.60;;;5.28;;
35981;SDS011;22058;0.000;0.000;2023-05-10T15:26:05;9.93;;;5.60;;
35981;SDS011;22058;0.000;0.000;2023-05-10T15:28:31;11.30;;;5.68;;
35981;SDS011;22058;0.000;0.000;2023-05-10T15:30:58;12.15;;;5.07;;
35981;SDS011;22058;0.000;0.000;2023-05-10T15:33:24;9.93;;;5.38;;